Inicio METAR Ruta Wind Satelite

Informe Meteorológico

Fecha: 2020/11/30 16:01:43 Local
2020.11.30 21:01 UTC


Estado: VENCIDO
Operación:
Barrancabermeja / Yariguies, Colombia (SKEJ) 07-01N 073-48W 134M
2020.09.30 1800 UTC
Wind: from the WSW (250 degrees) at 6 MPH (5 KT):0
Visibility: greater than 7 mile(s):0
Sky conditions: partly cloudy
Temperature: 86 F (30 C)
Heat index: 95.0 F (35.0 C):1
Dew Point: 75 F (24 C)
Relative Humidity: 70%
Pressure (altimeter): 29.81 in. Hg (1009 hPa)
ob: SKEJ 301800Z 25005KT 9999 SCT015 30/24 A2981
cycle: 18